Boyer, Iowa
Current Conditions -  °F | °C
As of 3:15 PM on Saturday 22 Nov 2014 (Local Time) from KDNS Reporting Station
Clear Clear  
Wind Chill: 43°   Ceiling: Unl
Heat Index: 48°   Visibility: 9mi
Dew Point: 43°   Wind: 13mph
Humidity: 82%   Direction: 200°SSW
Pressure: 29.65"   Gusts: 18mph
Location:  42.167°N, 95.303°W
Report Text: KDNS 222115Z AUTO 20011G16KT 9SM CLR 09/06 A2965 RMK AO2
Loading
Personal Weather Stations






























Interactive Weather Map New forecast layout! Learn more

10-Day Weather Forecast

Advertisements
Track Severe Weather on mobile